ADDS METAR Data INFO
IDs: Format: Raw Decoded Include TAF

Data at: 1524 UTC 18 Jun 2018

PAGN 181456Z AUTO 00000KT 10SM FEW007 12/11 A3024 RMK AO2 SLP229 T01220106 56002
PAGN 181408Z AUTO 00000KT 10SM SCT004 13/12 A3025 RMK AO2
PAGN 181356Z AUTO 00000KT 10SM BKN004 12/11 A3025 RMK AO2 SLP232 T01220111
PAGN 181346Z AUTO 00000KT 10SM FEW004 11/09 A3025 RMK AO2
PAGN 181256Z AUTO 00000KT 10SM CLR 10/09 A3024 RMK AO2 SLP228 T01000094
PAGN 181156Z AUTO 00000KT 10SM CLR 11/10 A3025 RMK AO2 SLP231 7//// T01060100 10128 20100 56004
PAGN 181056Z AUTO 00000KT 10SM OVC032 11/10 A3025 RMK AO2 SLP233 T01110100
PAGN 180956Z AUTO 00000KT 10SM BKN032 11/10 A3025 RMK AO2 SLP233 T01110100
PAGN 180856Z AUTO 00000KT 10SM SCT029 SCT047 OVC065 12/11 A3026 RMK AO2 SLP235 T01170106 401560094 55001
PAGN 180756Z AUTO 00000KT 10SM BKN029 12/11 A3025 RMK AO2 SLP233 T01170106
PAGN 180719Z AUTO 14005KT 10SM BKN029 12/11 A3024 RMK AO2
PAGN 180656Z AUTO 00000KT 10SM BKN085 12/10 A3025 RMK AO2 SLP234 T01170100
PAGN 180556Z AUTO 00000KT 10SM BKN036 BKN046 OVC070 13/10 A3026 RMK AO2 SLP236 T01280100 10150 20122 53001
PAGN 180456Z AUTO 00000KT 10SM FEW028 BKN042 OVC049 13/11 A3026 RMK AO2 SLP236 T01280106
PAGN 180442Z AUTO 00000KT 10SM BKN030 OVC049 13/11 A3026 RMK AO2
PAGN 180356Z AUTO 00000KT 10SM OVC028 13/11 A3026 RMK AO2 SLP235 T01280106
PAGN 180340Z AUTO 00000KT 10SM OVC028 13/11 A3026 RMK AO2
PAGN 180310Z AUTO 00000KT 10SM OVC030 12/10 A3026 RMK AO2
PAGN 180256Z AUTO 00000KT 10SM OVC028 13/10 A3026 RMK AO2 SLP235 T01280100 53001
PAGN 180156Z AUTO 00000KT 10SM OVC030 13/11 A3026 RMK AO2 SLP235 T01330106
PAGN 180056Z AUTO VRB04KT 10SM OVC034 14/11 A3025 RMK AO2 SLP233 T01390106
PAGN 172356Z AUTO 21005KT 10SM OVC034 14/11 A3025 RMK AO2 SLP234 6//// T01390106 10156 20122 53006
PAGN 172256Z AUTO VRB03KT 10SM OVC036 14/11 A3024 RMK AO2 SLP231 T01390106
PAGN 172156Z AUTO VRB04KT 10SM OVC040 14/11 A3024 RMK AO2 SLP228 T01390106
PAGN 172056Z AUTO VRB05KT 10SM OVC044 14/11 A3024 RMK AO2 SLP228 6//// T01440111 58005
PAGN 171956Z AUTO VRB03KT 10SM BKN060 BKN075 16/11 A3024 RMK AO2 SLP229 T01560111
PAGN 171906Z AUTO VRB04KT 10SM SCT013 SCT023 OVC070 14/11 A3025 RMK AO2
PAGN 171856Z AUTO 14005KT 10SM BKN013 BKN023 OVC070 14/11 A3025 RMK AO2 SLP232 T01390106
PAGN 171847Z AUTO 16007KT 10SM BKN013 OVC023 14/11 A3025 RMK AO2
PAGN 171756Z AUTO 24004KT 10SM OVC011 12/11 A3025 RMK AO2 CIG 007V012 SLP233 60000 T01220106 10128 20094 52008
PAGN 171656Z AUTO 15005KT 10SM OVC008 12/10 A3024 RMK AO2 SLP230 T01170100
PAGN 171556Z AUTO VRB03KT 10SM OVC006 11/10 A3023 RMK AO2 SLP227 T01110100
PAGN 171533Z AUTO 17004KT 8SM OVC006 11/10 A3023 RMK AO2 CIG 004V009
PAGN 171525Z AUTO VRB04KT 7SM BKN004 OVC008 11/10 A3022 RMK AO2
PAGN 171509Z AUTO 16003KT 5SM BR OVC008 11/10 A3023 RMK AO2 CIG 004V009
PAGN 171456Z AUTO 15003KT 4SM BR BKN004 OVC008 11/10 A3023 RMK AO2 CIG 004V007 SLP224 60000 T01060100 51004
PAGN 171356Z AUTO 00000KT 5SM BR OVC004 10/09 A3023 RMK AO2 SLP224 T01000094
PAGN 171256Z AUTO 00000KT 10SM OVC004 11/10 A3022 RMK AO2 RAE02 SLP221 P0000 T01060100
PAGN 171156Z AUTO VRB04KT 7SM -RA OVC004 11/10 A3021 RMK AO2 RAB09 SLP220 P0000 60000 T01060100 10111 20106 53006
PAGN 171056Z AUTO VRB04KT 10SM BKN004 OVC024 11/10 A3021 RMK AO2 SLP219 T01060100
PAGN 171016Z AUTO VRB05KT 10SM OVC004 11/10 A3020 RMK AO2
PAGN 170956Z AUTO 00000KT 10SM OVC006 11/10 A3020 RMK AO2 SLP216 T01110100
PAGN 170856Z AUTO 00000KT 10SM BKN006 OVC026 11/10 A3020 RMK AO2 SLP215 T01110100 401390078 50000
PAGN 170831Z AUTO 00000KT 10SM BKN006 OVC026 11/10 A3020 RMK AO2
PAGN 170818Z AUTO 00000KT 10SM SCT006 OVC026 11/10 A3020 RMK AO2
PAGN 170756Z AUTO 00000KT 10SM OVC026 11/09 A3020 RMK AO2 SLP217 T01110094
PAGN 170656Z AUTO 00000KT 10SM OVC028 11/09 A3020 RMK AO2 SLP214 T01110094
PAGN 170634Z AUTO 00000KT 10SM OVC028 11/09 A3019 RMK AO2
PAGN 170456Z AUTO 24005KT 10SM OVC032 12/09 A3020 RMK AO2 SLP216 T01170094
PAGN 170356Z AUTO 00000KT 10SM SCT034 BKN048 OVC075 12/09 A3020 RMK AO2 SLP217 T01170089